createdAt,value
2019-04-26T00:01:59.779Z,17.82
2019-04-26T00:04:30.268Z,17.02
2019-04-26T00:07:00.489Z,16.52
2019-04-26T00:09:32.602Z,16.82
2019-04-26T00:12:19.391Z,16.42
2019-04-26T00:15:07.477Z,16.75
2019-04-26T00:17:45.392Z,17.80
2019-04-26T00:20:15.557Z,18.42
2019-04-26T00:22:45.782Z,14.90
2019-04-26T00:25:16.522Z,14.90
2019-04-26T00:27:46.778Z,14.50
2019-04-26T00:30:17.192Z,14.55
2019-04-26T00:32:47.345Z,14.45
2019-04-26T00:35:17.818Z,15.25
2019-04-26T00:37:48.024Z,15.70
2019-04-26T00:40:18.317Z,15.15
2019-04-26T00:42:50.395Z,17.17
2019-04-26T00:45:21.130Z,17.60
2019-04-26T00:47:52.088Z,17.25
2019-04-26T00:50:23.269Z,19.35
2019-04-26T00:52:54.214Z,18.30
2019-04-26T00:55:24.498Z,17.37
2019-04-26T00:57:54.898Z,19.65
2019-04-26T01:00:26.037Z,19.87
2019-04-26T01:02:57.920Z,21.25
2019-04-26T01:05:29.788Z,20.92
2019-04-26T01:08:00.000Z,19.40
2019-04-26T01:10:30.246Z,19.25
2019-04-26T01:13:00.408Z,19.92
2019-04-26T01:15:30.509Z,18.20
2019-04-26T01:18:00.591Z,20.02
2019-04-26T01:20:32.863Z,18.85
2019-04-26T01:23:05.946Z,19.25
2019-04-26T01:25:42.001Z,19.52
2019-04-26T01:28:17.086Z,20.40
2019-04-26T01:30:48.480Z,19.57
2019-04-26T01:33:20.026Z,19.70
2019-04-26T01:35:51.153Z,18.98
2019-04-26T01:38:21.874Z,19.20
2019-04-26T01:40:53.812Z,19.10
2019-04-26T01:43:31.423Z,18.35
2019-04-26T01:46:06.325Z,19.80
2019-04-26T01:48:55.307Z,19.77
2019-04-26T01:51:40.406Z,19.48
2019-04-26T01:54:13.513Z,19.05
2019-04-26T01:56:43.762Z,19.42
2019-04-26T01:59:16.586Z,20.57
2019-04-26T02:02:04.816Z,18.95
2019-04-26T02:04:36.720Z,18.82
2019-04-26T02:07:06.885Z,20.65
2019-04-26T02:09:37.053Z,20.95
2019-04-26T02:12:07.209Z,19.45
2019-04-26T02:14:37.527Z,20.97
2019-04-26T02:17:07.970Z,22.42
2019-04-26T02:19:38.224Z,21.57
2019-04-26T02:22:19.039Z,22.40
2019-04-26T02:24:50.946Z,20.68
2019-04-26T02:27:22.737Z,20.23
2019-04-26T02:29:53.104Z,19.98
2019-04-26T02:32:25.277Z,19.50
2019-04-26T02:34:56.053Z,21.12
2019-04-26T02:37:26.997Z,19.07
2019-04-26T02:39:58.378Z,19.40
2019-04-26T02:42:32.899Z,20.32
2019-04-26T02:45:22.661Z,18.67
2019-04-26T02:47:57.066Z,21.17
2019-04-26T02:50:36.967Z,21.73
2019-04-26T02:53:13.269Z,18.23
2019-04-26T02:56:12.030Z,18.77
2019-04-26T02:59:00.308Z,19.75
2019-04-26T03:01:32.293Z,19.62
2019-04-26T03:04:02.938Z,19.05
2019-04-26T03:06:34.969Z,19.05
2019-04-26T03:09:07.664Z,19.48
2019-04-26T03:11:46.623Z,19.05
2019-04-26T03:14:23.238Z,19.50
2019-04-26T03:17:14.289Z,18.65
2019-04-26T03:20:05.564Z,17.45
2019-04-26T03:22:54.998Z,19.10
2019-04-26T03:25:32.810Z,17.35
2019-04-26T03:28:05.895Z,18.37
2019-04-26T03:30:57.096Z,18.35
2019-04-26T03:33:49.126Z,17.05
2019-04-26T03:36:56.517Z,16.97
2019-04-26T03:39:41.188Z,17.10
2019-04-26T03:42:21.445Z,16.80
2019-04-26T03:44:57.632Z,18.23
2019-04-26T03:47:30.777Z,18.12
2019-04-26T03:50:06.910Z,19.48
2019-04-26T03:53:01.229Z,17.05
2019-04-26T03:55:40.233Z,17.00
2019-04-26T03:58:15.271Z,16.80
2019-04-26T04:00:50.371Z,16.97
2019-04-26T04:03:30.994Z,17.65
2019-04-26T04:06:03.570Z,16.65
2019-04-26T04:08:44.091Z,16.35
2019-04-26T04:11:17.539Z,16.42
2019-04-26T04:14:25.229Z,15.63
2019-04-26T04:17:20.846Z,16.07
2019-04-26T04:20:16.065Z,14.80
2019-04-26T04:23:13.242Z,13.98
2019-04-26T04:25:49.323Z,13.62
2019-04-26T04:28:44.542Z,14.30
2019-04-26T04:31:34.317Z,14.28
2019-04-26T04:34:07.405Z,13.90
2019-04-26T04:36:48.861Z,12.58
2019-04-26T04:39:24.009Z,12.35
2019-04-26T04:42:13.559Z,13.95
2019-04-26T04:45:09.164Z,12.58
2019-04-26T04:47:52.548Z,13.83
2019-04-26T04:50:29.114Z,13.83
2019-04-26T04:53:08.188Z,11.88
2019-04-26T04:55:42.902Z,12.47
2019-04-26T04:58:37.335Z,11.85
2019-04-26T05:01:26.966Z,12.50
2019-04-26T05:04:30.208Z,13.98
2019-04-26T05:07:25.801Z,14.50
2019-04-26T05:10:10.416Z,13.40
2019-04-26T05:13:04.645Z,13.55
2019-04-26T05:15:42.158Z,12.75
2019-04-26T05:18:34.790Z,13.03
2019-04-26T05:21:16.981Z,13.62
2019-04-26T05:24:23.285Z,12.68
2019-04-26T05:27:28.021Z,12.95
2019-04-26T05:30:28.264Z,13.25
2019-04-26T05:33:19.506Z,12.60
2019-04-26T05:36:09.014Z,12.43
2019-04-26T05:38:42.170Z,12.45
2019-04-26T05:41:31.738Z,12.37
2019-04-26T05:44:41.012Z,13.00
2019-04-26T05:48:01.278Z,11.90
2019-04-26T05:50:49.193Z,14.05
2019-04-26T05:53:57.167Z,13.58
2019-04-26T05:57:03.296Z,15.43
2019-04-26T05:59:42.146Z,14.35
2019-04-26T06:02:37.753Z,14.40
2019-04-26T06:05:45.055Z,14.70
2019-04-26T06:08:46.819Z,14.07
2019-04-26T06:11:33.492Z,13.08
2019-04-26T06:14:44.332Z,12.98
2019-04-26T06:17:27.908Z,12.60
2019-04-26T06:20:08.473Z,12.85
2019-04-26T06:22:53.581Z,13.43
2019-04-26T06:25:32.857Z,14.47
2019-04-26T06:28:06.419Z,13.72
2019-04-26T06:31:09.662Z,13.20
2019-04-26T06:33:45.755Z,13.83
2019-04-26T06:36:19.421Z,15.23
2019-04-26T06:39:00.170Z,14.50
2019-04-26T06:42:02.807Z,14.33
2019-04-26T06:44:45.934Z,14.40
2019-04-26T06:47:26.565Z,14.00
2019-04-26T06:50:13.203Z,14.20
2019-04-26T06:53:01.535Z,14.03
2019-04-26T06:55:39.123Z,14.53
2019-04-26T06:58:36.258Z,13.15
2019-04-26T07:01:16.948Z,13.32
2019-04-26T07:04:14.161Z,15.13
2019-04-26T07:07:11.213Z,15.00
2019-04-26T07:10:00.242Z,14.43
2019-04-26T07:12:49.839Z,12.88
2019-04-26T07:15:48.089Z,14.45
2019-04-26T07:18:49.707Z,15.90
2019-04-26T07:21:30.129Z,15.25
2019-04-26T07:24:40.873Z,13.13
2019-04-26T07:27:23.099Z,14.28
2019-04-26T07:30:08.362Z,14.95
2019-04-26T07:32:51.935Z,14.23
2019-04-26T07:35:44.131Z,14.80
2019-04-26T07:38:54.242Z,14.35
2019-04-26T07:41:48.223Z,15.50
2019-04-26T07:44:37.864Z,14.95
2019-04-26T07:47:36.035Z,14.47
2019-04-26T07:50:12.096Z,16.37
2019-04-26T07:53:19.976Z,15.03
2019-04-26T07:56:07.947Z,15.25
2019-04-26T07:58:47.011Z,14.95
2019-04-26T08:01:39.169Z,14.58
2019-04-26T08:04:14.032Z,14.43
2019-04-26T08:06:59.028Z,13.98
2019-04-26T08:09:31.067Z,13.88
2019-04-26T08:12:08.003Z,14.90
2019-04-26T08:14:46.839Z,12.80
2019-04-26T08:17:30.593Z,14.68
2019-04-26T08:20:15.446Z,13.95
2019-04-26T08:22:48.687Z,13.70
2019-04-26T08:25:21.920Z,13.32
2019-04-26T08:27:55.164Z,13.45
2019-04-26T08:30:28.378Z,13.28
2019-04-26T08:33:02.175Z,13.15
2019-04-26T08:35:35.544Z,12.68
2019-04-26T08:38:16.020Z,12.78
2019-04-26T08:40:40.998Z,12.20
2019-04-26T08:43:20.419Z,13.10
2019-04-26T08:46:03.454Z,12.93
2019-04-26T08:48:54.049Z,12.20
2019-04-26T08:51:25.461Z,12.85
2019-04-26T08:53:57.862Z,12.47
2019-04-26T08:56:30.971Z,13.58
2019-04-26T08:59:13.015Z,12.85
2019-04-26T09:01:52.383Z,12.50
2019-04-26T09:04:32.273Z,12.75
2019-04-26T09:07:12.332Z,13.00
2019-04-26T09:09:56.691Z,12.90
2019-04-26T09:12:23.143Z,12.33
2019-04-26T09:14:55.129Z,12.88
2019-04-26T09:17:27.893Z,12.03
2019-04-26T09:19:58.267Z,13.00
2019-04-26T09:22:32.999Z,11.68
2019-04-26T09:25:04.865Z,12.25
2019-04-26T09:27:42.310Z,13.03
2019-04-26T09:30:14.263Z,11.22
2019-04-26T09:32:58.146Z,11.63
2019-04-26T09:35:26.470Z,11.70
2019-04-26T09:37:56.708Z,11.65
2019-04-26T09:40:26.884Z,11.25
2019-04-26T09:43:10.666Z,10.40
2019-04-26T09:45:43.516Z,10.65
2019-04-26T09:48:15.365Z,10.58
2019-04-26T09:50:47.225Z,9.68
2019-04-26T09:53:17.592Z,10.90
2019-04-26T09:55:47.759Z,11.05
2019-04-26T09:58:17.936Z,10.95
2019-04-26T10:00:50.059Z,10.60
2019-04-26T10:03:20.090Z,11.10
2019-04-26T10:05:52.108Z,10.90
2019-04-26T10:08:22.200Z,12.03
2019-04-26T10:10:52.442Z,10.53
2019-04-26T10:13:35.885Z,11.03
2019-04-26T10:16:16.665Z,10.72
2019-04-26T10:18:48.536Z,11.12
2019-04-26T10:21:18.707Z,10.93
2019-04-26T10:23:49.001Z,11.10
2019-04-26T10:26:19.194Z,11.90
2019-04-26T10:28:52.195Z,13.05
2019-04-26T10:31:23.437Z,12.47
2019-04-26T10:33:53.588Z,13.22
2019-04-26T10:36:26.179Z,15.38
2019-04-26T10:38:58.465Z,15.28
2019-04-26T10:41:27.424Z,15.83
2019-04-26T10:43:57.664Z,15.83
2019-04-26T10:46:29.510Z,15.15
2019-04-26T10:49:08.505Z,15.25
2019-04-26T10:51:38.575Z,14.70
2019-04-26T10:54:09.623Z,14.95
2019-04-26T10:56:41.628Z,13.15
2019-04-26T10:59:13.481Z,12.88
2019-04-26T11:01:44.604Z,9.88
2019-04-26T11:04:14.753Z,10.45
2019-04-26T11:06:44.990Z,9.45
2019-04-26T11:09:15.100Z,7.97
2019-04-26T11:11:45.273Z,8.48
2019-04-26T11:14:18.456Z,8.70
2019-04-26T11:16:48.165Z,9.75
2019-04-26T11:19:18.405Z,9.20
2019-04-26T11:21:51.112Z,8.73
2019-04-26T11:24:20.926Z,7.97
2019-04-26T11:26:51.445Z,9.28
2019-04-26T11:29:25.008Z,10.45
2019-04-26T11:31:54.188Z,9.88
2019-04-26T11:34:25.188Z,10.85
2019-04-26T11:36:55.528Z,11.93
2019-04-26T11:39:28.116Z,11.28
2019-04-26T11:41:57.617Z,11.60
2019-04-26T11:44:28.534Z,10.85
2019-04-26T11:46:59.304Z,10.80
2019-04-26T11:49:30.640Z,10.40
2019-04-26T11:52:02.791Z,11.70
2019-04-26T11:54:32.452Z,11.83
2019-04-26T11:57:02.633Z,11.05
2019-04-26T11:59:33.767Z,11.40
2019-04-26T12:02:04.036Z,12.35
2019-04-26T12:04:38.573Z,10.53
2019-04-26T12:07:13.146Z,10.20
2019-04-26T12:09:47.848Z,8.43
2019-04-26T12:12:19.032Z,8.88
2019-04-26T12:14:49.118Z,9.05
2019-04-26T12:17:19.215Z,8.55
2019-04-26T12:19:52.222Z,7.70
2019-04-26T12:22:21.253Z,6.70
2019-04-26T12:24:51.424Z,7.62
2019-04-26T12:27:21.615Z,7.50
2019-04-26T12:29:51.920Z,7.90
2019-04-26T12:32:22.202Z,6.90
2019-04-26T12:34:52.417Z,7.45
2019-04-26T12:37:22.576Z,7.10
2019-04-26T12:39:52.673Z,8.60
2019-04-26T12:42:22.761Z,7.75
2019-04-26T12:45:12.147Z,7.95
2019-04-26T12:47:43.852Z,7.83
2019-04-26T12:50:14.520Z,7.40
2019-04-26T12:52:44.608Z,6.75
2019-04-26T12:55:18.278Z,6.47
2019-04-26T12:57:46.730Z,6.60
2019-04-26T13:00:18.797Z,7.53
2019-04-26T13:02:50.117Z,7.15
2019-04-26T13:05:20.729Z,6.55
2019-04-26T13:07:54.484Z,7.72
2019-04-26T13:10:44.968Z,8.13
2019-04-26T13:13:18.340Z,6.00
2019-04-26T13:15:59.137Z,6.42
2019-04-26T13:18:30.520Z,6.00
2019-04-26T13:21:03.011Z,6.80
2019-04-26T13:23:32.472Z,7.20
2019-04-26T13:26:02.657Z,6.97
2019-04-26T13:28:32.804Z,6.67
2019-04-26T13:31:03.056Z,5.58
2019-04-26T13:33:33.221Z,5.50
2019-04-26T13:36:03.580Z,5.65
2019-04-26T13:38:33.856Z,6.20
2019-04-26T13:41:06.274Z,5.60
2019-04-26T13:43:36.556Z,5.22
2019-04-26T13:46:14.209Z,4.78
2019-04-26T13:48:54.713Z,4.20
2019-04-26T13:51:26.432Z,4.50
2019-04-26T13:53:56.439Z,4.40
2019-04-26T13:56:26.695Z,5.30
2019-04-26T13:58:58.331Z,5.08
2019-04-26T14:01:28.680Z,4.47
2019-04-26T14:04:02.375Z,3.80
2019-04-26T14:06:30.758Z,3.05
2019-04-26T14:09:02.850Z,3.77
2019-04-26T14:11:34.136Z,3.65
2019-04-26T14:14:05.940Z,3.40
2019-04-26T14:16:36.152Z,3.25
2019-04-26T14:19:06.368Z,2.70
2019-04-26T14:21:36.586Z,2.35
2019-04-26T14:24:19.557Z,2.50
2019-04-26T14:26:53.494Z,3.17
2019-04-26T14:29:28.304Z,2.58
2019-04-26T14:31:56.437Z,3.08
2019-04-26T14:34:26.716Z,3.20
2019-04-26T14:37:06.468Z,3.25
2019-04-26T14:39:38.490Z,3.58
2019-04-26T14:42:00.644Z,2.92
2019-04-26T14:44:31.259Z,3.67
2019-04-26T14:47:15.032Z,3.30
2019-04-26T14:49:43.052Z,4.20
2019-04-26T14:52:12.448Z,3.77
2019-04-26T14:54:46.029Z,3.95
2019-04-26T14:57:21.375Z,4.03
2019-04-26T15:00:00.919Z,3.52
2019-04-26T15:02:43.283Z,3.67
2019-04-26T15:07:57.167Z,3.65
2019-04-26T15:10:45.674Z,3.65
2019-04-26T15:13:17.445Z,4.15
2019-04-26T15:15:40.065Z,3.70
2019-04-26T15:18:12.262Z,3.10
2019-04-26T15:20:43.522Z,3.15
2019-04-26T15:23:13.753Z,3.47
2019-04-26T15:25:48.405Z,3.45
2019-04-26T15:28:15.818Z,3.62
2019-04-26T15:30:46.940Z,3.50
2019-04-26T15:33:17.280Z,3.02
2019-04-26T15:35:49.317Z,3.95
2019-04-26T15:38:20.238Z,3.52
2019-04-26T15:41:11.821Z,2.12
2019-04-26T15:43:55.205Z,1.75
2019-04-26T15:46:35.746Z,1.40
2019-04-26T15:49:26.176Z,1.72
2019-04-26T15:51:59.526Z,1.90
2019-04-26T15:54:28.285Z,1.35
2019-04-26T15:57:02.039Z,1.50
2019-04-26T15:59:33.783Z,1.62
2019-04-26T16:02:04.312Z,1.70
2019-04-26T16:04:36.448Z,1.50
2019-04-26T16:07:08.349Z,1.55
2019-04-26T16:09:59.493Z,1.57
2019-04-26T16:12:24.578Z,1.30
2019-04-26T16:14:59.871Z,1.37
2019-04-26T16:23:16.686Z,1.30
2019-04-26T16:29:06.103Z,1.20
2019-04-26T16:31:45.906Z,1.15
2019-04-26T16:34:19.151Z,1.20
2019-04-26T16:36:49.410Z,1.60
2019-04-26T16:39:19.821Z,1.50
2019-04-26T16:41:50.166Z,1.35
2019-04-26T16:44:28.281Z,1.35
2019-04-26T16:47:01.141Z,1.22
2019-04-26T16:49:26.109Z,1.30
2019-04-26T16:52:02.125Z,1.40
2019-04-26T16:54:29.337Z,2.00
2019-04-26T16:57:06.973Z,1.32
2019-04-26T16:59:32.840Z,1.77
2019-04-26T17:02:03.165Z,2.10
2019-04-26T17:04:36.278Z,1.50
2019-04-26T17:07:05.496Z,1.05
2019-04-26T17:09:54.365Z,1.07
2019-04-26T17:12:10.620Z,1.10
2019-04-26T17:14:40.567Z,0.95
2019-04-26T17:17:13.639Z,1.02
2019-04-26T17:19:43.307Z,1.20
2019-04-26T17:22:26.681Z,1.40
2019-04-26T17:25:00.279Z,0.90
2019-04-26T17:27:30.416Z,1.25
2019-04-26T17:30:03.116Z,1.07
2019-04-26T17:32:35.042Z,1.22
2019-04-26T17:35:07.629Z,1.07
2019-04-26T17:37:37.817Z,1.00
2019-04-26T17:40:09.025Z,1.25
2019-04-26T17:42:40.688Z,1.22
2019-04-26T17:45:11.141Z,2.08
2019-04-26T17:47:42.399Z,2.40
2019-04-26T17:50:12.761Z,2.17
2019-04-26T17:52:44.198Z,2.10
2019-04-26T17:55:15.250Z,2.00
2019-04-26T17:57:48.568Z,2.22
2019-04-26T18:00:26.401Z,1.55
2019-04-26T18:02:52.028Z,1.60
2019-04-26T18:05:24.384Z,1.42
2019-04-26T18:07:58.338Z,1.35
2019-04-26T18:10:25.887Z,1.20
2019-04-26T18:12:56.129Z,1.50
2019-04-26T18:15:26.364Z,1.87
2019-04-26T18:18:00.858Z,2.35
2019-04-26T18:20:37.377Z,2.00
2019-04-26T18:23:18.516Z,2.10
2019-04-26T18:25:48.315Z,1.75
2019-04-26T18:28:18.614Z,1.70
2019-04-26T18:30:48.707Z,2.10
2019-04-26T18:33:24.072Z,2.52
2019-04-26T18:35:55.858Z,2.35
2019-04-26T18:38:24.815Z,2.80
2019-04-26T18:41:00.513Z,2.50
2019-04-26T18:43:27.910Z,2.72
2019-04-26T18:46:03.459Z,2.58
2019-04-26T18:48:35.267Z,2.20
2019-04-26T18:51:03.361Z,1.82
2019-04-26T18:53:39.394Z,2.00
2019-04-26T18:56:08.575Z,1.72
2019-04-26T18:58:38.711Z,2.20
2019-04-26T19:01:10.457Z,1.70
2019-04-26T19:03:40.602Z,1.90
2019-04-26T19:06:10.705Z,2.00
2019-04-26T19:08:47.659Z,2.33
2019-04-26T19:11:13.006Z,2.25
2019-04-26T19:13:57.531Z,2.62
2019-04-26T19:16:32.000Z,2.40
2019-04-26T19:19:15.464Z,2.45
2019-04-26T19:21:43.120Z,2.20
2019-04-26T19:24:19.804Z,2.55
2019-04-26T19:26:49.687Z,2.20
2019-04-26T19:29:18.721Z,2.67
2019-04-26T19:31:49.004Z,2.40
2019-04-26T19:34:19.322Z,2.65
2019-04-26T19:36:49.817Z,2.47
2019-04-26T19:39:30.429Z,2.45
2019-04-26T19:41:57.620Z,2.35
2019-04-26T19:44:24.448Z,3.02
2019-04-26T19:47:05.518Z,2.98
2019-04-26T19:49:54.100Z,3.02
2019-04-26T19:52:45.009Z,3.10
2019-04-26T19:55:31.965Z,3.70
2019-04-26T19:58:03.872Z,3.25
2019-04-26T20:00:34.100Z,3.10
2019-04-26T20:03:04.360Z,3.45
2019-04-26T20:05:36.309Z,4.08
2019-04-26T20:08:06.360Z,3.45
2019-04-26T20:10:40.655Z,3.05
2019-04-26T20:13:15.141Z,3.37
2019-04-26T20:15:42.349Z,3.37
2019-04-26T20:18:12.639Z,3.33
2019-04-26T20:20:42.801Z,2.87
2019-04-26T20:23:12.989Z,2.52
2019-04-26T20:25:43.145Z,2.90
2019-04-26T20:28:14.136Z,2.60
2019-04-26T20:31:07.123Z,2.60
2019-04-26T20:33:34.976Z,2.83
2019-04-26T20:36:04.801Z,2.52
2019-04-26T20:38:43.821Z,3.20
2019-04-26T20:41:08.101Z,3.17
2019-04-26T20:43:44.424Z,3.17
2019-04-26T20:46:14.745Z,3.52
2019-04-26T20:48:43.240Z,3.27
2019-04-26T20:51:14.400Z,3.08
2019-04-26T20:53:44.655Z,3.40
2019-04-26T20:56:18.267Z,4.17
2019-04-26T20:58:47.237Z,3.30
2019-04-26T21:01:17.544Z,3.30
2019-04-26T21:03:47.637Z,3.20
2019-04-26T21:06:17.852Z,3.45
2019-04-26T21:08:48.012Z,2.87
2019-04-26T21:11:18.250Z,3.30
2019-04-26T21:13:48.495Z,3.35
2019-04-26T21:16:18.576Z,3.10
2019-04-26T21:18:48.748Z,3.17
2019-04-26T21:21:19.075Z,3.50
2019-04-26T21:23:50.485Z,3.55
2019-04-26T21:26:32.207Z,3.20
2019-04-26T21:29:20.497Z,3.72
2019-04-26T21:32:04.908Z,3.72
2019-04-26T21:34:37.763Z,3.98
2019-04-26T21:37:25.733Z,4.03
2019-04-26T21:39:57.552Z,4.08
2019-04-26T21:42:27.807Z,3.70
2019-04-26T21:44:58.030Z,3.95
2019-04-26T21:47:31.871Z,4.22
2019-04-26T21:50:00.739Z,3.83
2019-04-26T21:52:31.991Z,3.83
2019-04-26T21:55:02.141Z,4.10
2019-04-26T21:57:32.445Z,4.42
2019-04-26T22:00:04.162Z,4.90
2019-04-26T22:02:37.451Z,4.45
2019-04-26T22:05:11.603Z,4.05
2019-04-26T22:07:44.684Z,4.08
2019-04-26T22:10:14.287Z,4.45
2019-04-26T22:12:45.114Z,4.42
2019-04-26T22:15:29.606Z,3.80
2019-04-26T22:18:04.775Z,4.37
2019-04-26T22:23:23.670Z,4.30
2019-04-26T22:25:56.002Z,4.15
2019-04-26T22:28:26.951Z,4.62
2019-04-26T22:30:59.471Z,4.55
2019-04-26T22:33:30.887Z,4.40
2019-04-26T22:36:03.772Z,4.62
2019-04-26T22:38:34.908Z,4.40
2019-04-26T22:41:05.133Z,4.55
2019-04-26T22:43:39.692Z,4.45
2019-04-26T22:46:11.570Z,4.78
2019-04-26T22:48:54.913Z,4.60
2019-04-26T22:51:20.704Z,4.78
2019-04-26T22:53:50.849Z,4.62
2019-04-26T22:56:21.098Z,4.75
2019-04-26T22:58:51.161Z,4.80
2019-04-26T23:01:21.397Z,4.75
2019-04-26T23:03:53.163Z,4.90
2019-04-26T23:06:23.647Z,4.85
2019-04-26T23:08:54.091Z,4.70
2019-04-26T23:11:25.289Z,4.75
2019-04-26T23:14:05.867Z,4.95
2019-04-26T23:16:40.484Z,5.35
2019-04-26T23:19:20.404Z,4.72
2019-04-26T23:21:56.195Z,5.60
2019-04-26T23:24:26.508Z,6.75
2019-04-26T23:26:56.591Z,6.53
2019-04-26T23:29:26.744Z,5.85
2019-04-26T23:31:56.983Z,6.42
2019-04-26T23:34:27.088Z,6.33
2019-04-26T23:36:57.242Z,5.90
2019-04-26T23:39:27.408Z,5.90
2019-04-26T23:41:57.664Z,5.53
2019-04-26T23:44:28.871Z,5.78
2019-04-26T23:47:01.285Z,9.03
2019-04-26T23:49:33.455Z,5.80
2019-04-26T23:52:04.671Z,5.80
2019-04-26T23:54:35.996Z,7.83
2019-04-26T23:57:06.128Z,6.55
2019-04-26T23:59:36.296Z,8.60
